sensor_id;sensor_type;location;lat;lon;timestamp;P1;durP1;ratioP1;P2;durP2;ratioP2
2299;SDS011;1158;48.750;9.078;2023-03-01T00:00:01;28.33;;;15.23;;
2299;SDS011;1158;48.750;9.078;2023-03-01T00:02:29;25.00;;;13.60;;
2299;SDS011;1158;48.750;9.078;2023-03-01T00:04:56;34.47;;;15.23;;
2299;SDS011;1158;48.750;9.078;2023-03-01T00:07:22;30.37;;;15.67;;
2299;SDS011;1158;48.750;9.078;2023-03-01T00:09:50;29.83;;;15.50;;
2299;SDS011;1158;48.750;9.078;2023-03-01T00:12:17;36.17;;;16.33;;
2299;SDS011;1158;48.750;9.078;2023-03-01T00:14:44;28.23;;;14.40;;
2299;SDS011;1158;48.750;9.078;2023-03-01T00:17:10;36.00;;;15.93;;
2299;SDS011;1158;48.750;9.078;2023-03-01T00:19:37;28.43;;;14.17;;
2299;SDS011;1158;48.750;9.078;2023-03-01T00:22:04;38.37;;;19.60;;
2299;SDS011;1158;48.750;9.078;2023-03-01T00:24:30;34.20;;;16.70;;
2299;SDS011;1158;48.750;9.078;2023-03-01T00:26:58;31.27;;;14.93;;
2299;SDS011;1158;48.750;9.078;2023-03-01T00:29:25;23.80;;;13.50;;
2299;SDS011;1158;48.750;9.078;2023-03-01T00:31:52;32.43;;;15.90;;
2299;SDS011;1158;48.750;9.078;2023-03-01T00:34:19;30.87;;;14.90;;
2299;SDS011;1158;48.750;9.078;2023-03-01T00:36:46;31.50;;;17.30;;
2299;SDS011;1158;48.750;9.078;2023-03-01T00:39:13;33.80;;;16.60;;
2299;SDS011;1158;48.750;9.078;2023-03-01T00:41:41;29.30;;;16.00;;
2299;SDS011;1158;48.750;9.078;2023-03-01T00:44:10;28.50;;;14.93;;
2299;SDS011;1158;48.750;9.078;2023-03-01T00:46:37;27.40;;;15.10;;
2299;SDS011;1158;48.750;9.078;2023-03-01T00:49:03;32.93;;;15.17;;
2299;SDS011;1158;48.750;9.078;2023-03-01T00:51:30;42.37;;;20.87;;
2299;SDS011;1158;48.750;9.078;2023-03-01T00:53:58;32.23;;;17.33;;
2299;SDS011;1158;48.750;9.078;2023-03-01T00:56:26;31.23;;;14.90;;
2299;SDS011;1158;48.750;9.078;2023-03-01T00:58:54;29.00;;;14.53;;
2299;SDS011;1158;48.750;9.078;2023-03-01T01:01:23;29.83;;;14.83;;
2299;SDS011;1158;48.750;9.078;2023-03-01T01:03:53;30.70;;;14.20;;
2299;SDS011;1158;48.750;9.078;2023-03-01T01:06:22;32.07;;;17.17;;
2299;SDS011;1158;48.750;9.078;2023-03-01T01:08:50;32.13;;;17.47;;
2299;SDS011;1158;48.750;9.078;2023-03-01T01:11:17;35.30;;;16.87;;
2299;SDS011;1158;48.750;9.078;2023-03-01T01:13:46;30.10;;;15.73;;
2299;SDS011;1158;48.750;9.078;2023-03-01T01:16:13;30.77;;;14.77;;
2299;SDS011;1158;48.750;9.078;2023-03-01T01:18:42;28.33;;;16.10;;
2299;SDS011;1158;48.750;9.078;2023-03-01T01:21:10;40.43;;;16.90;;
2299;SDS011;1158;48.750;9.078;2023-03-01T01:23:39;35.40;;;16.67;;
2299;SDS011;1158;48.750;9.078;2023-03-01T01:26:07;38.27;;;17.53;;
2299;SDS011;1158;48.750;9.078;2023-03-01T01:28:36;28.77;;;14.97;;
2299;SDS011;1158;48.750;9.078;2023-03-01T01:31:03;33.90;;;16.90;;
2299;SDS011;1158;48.750;9.078;2023-03-01T01:33:30;32.60;;;16.63;;
2299;SDS011;1158;48.750;9.078;2023-03-01T01:35:59;37.60;;;16.40;;
2299;SDS011;1158;48.750;9.078;2023-03-01T01:38:25;34.27;;;17.20;;
2299;SDS011;1158;48.750;9.078;2023-03-01T01:40:52;31.93;;;16.40;;
2299;SDS011;1158;48.750;9.078;2023-03-01T01:43:21;33.97;;;15.93;;
2299;SDS011;1158;48.750;9.078;2023-03-01T01:45:49;30.90;;;15.57;;
2299;SDS011;1158;48.750;9.078;2023-03-01T01:48:17;34.30;;;17.73;;
2299;SDS011;1158;48.750;9.078;2023-03-01T01:50:47;29.77;;;16.07;;
2299;SDS011;1158;48.750;9.078;2023-03-01T01:53:23;34.93;;;16.10;;
2299;SDS011;1158;48.750;9.078;2023-03-01T01:55:52;37.83;;;18.33;;
2299;SDS011;1158;48.750;9.078;2023-03-01T01:58:22;32.80;;;16.23;;
2299;SDS011;1158;48.750;9.078;2023-03-01T02:00:52;31.50;;;15.20;;
2299;SDS011;1158;48.750;9.078;2023-03-01T02:03:20;29.60;;;15.63;;
2299;SDS011;1158;48.750;9.078;2023-03-01T02:05:55;31.63;;;15.73;;
2299;SDS011;1158;48.750;9.078;2023-03-01T02:08:28;33.97;;;16.17;;
2299;SDS011;1158;48.750;9.078;2023-03-01T02:10:57;34.77;;;17.40;;
2299;SDS011;1158;48.750;9.078;2023-03-01T02:13:25;38.57;;;17.20;;
2299;SDS011;1158;48.750;9.078;2023-03-01T02:15:52;41.20;;;18.00;;
2299;SDS011;1158;48.750;9.078;2023-03-01T02:18:20;38.20;;;18.30;;
2299;SDS011;1158;48.750;9.078;2023-03-01T02:20:51;36.07;;;18.40;;
2299;SDS011;1158;48.750;9.078;2023-03-01T02:23:32;31.67;;;17.80;;
2299;SDS011;1158;48.750;9.078;2023-03-01T02:26:02;42.10;;;21.37;;
2299;SDS011;1158;48.750;9.078;2023-03-01T02:28:35;34.00;;;18.50;;
2299;SDS011;1158;48.750;9.078;2023-03-01T02:31:03;38.30;;;20.70;;
2299;SDS011;1158;48.750;9.078;2023-03-01T02:33:49;39.93;;;17.13;;
2299;SDS011;1158;48.750;9.078;2023-03-01T02:36:19;34.67;;;17.93;;
2299;SDS011;1158;48.750;9.078;2023-03-01T02:38:48;38.40;;;19.10;;
2299;SDS011;1158;48.750;9.078;2023-03-01T02:41:17;36.17;;;18.37;;
2299;SDS011;1158;48.750;9.078;2023-03-01T02:43:47;34.60;;;17.73;;
2299;SDS011;1158;48.750;9.078;2023-03-01T02:46:14;37.37;;;19.27;;
2299;SDS011;1158;48.750;9.078;2023-03-01T02:48:43;36.20;;;19.00;;
2299;SDS011;1158;48.750;9.078;2023-03-01T02:51:18;43.40;;;20.07;;
2299;SDS011;1158;48.750;9.078;2023-03-01T02:54:12;33.80;;;18.70;;
2299;SDS011;1158;48.750;9.078;2023-03-01T02:56:43;37.27;;;18.87;;
2299;SDS011;1158;48.750;9.078;2023-03-01T02:59:14;41.20;;;19.77;;
2299;SDS011;1158;48.750;9.078;2023-03-01T03:01:42;43.07;;;21.13;;
2299;SDS011;1158;48.750;9.078;2023-03-01T03:04:10;39.70;;;19.63;;
2299;SDS011;1158;48.750;9.078;2023-03-01T03:06:42;31.33;;;18.00;;
2299;SDS011;1158;48.750;9.078;2023-03-01T03:09:09;41.57;;;19.80;;
2299;SDS011;1158;48.750;9.078;2023-03-01T03:11:36;38.53;;;20.00;;
2299;SDS011;1158;48.750;9.078;2023-03-01T03:14:04;32.97;;;18.17;;
2299;SDS011;1158;48.750;9.078;2023-03-01T03:16:38;51.00;;;22.03;;
2299;SDS011;1158;48.750;9.078;2023-03-01T03:19:06;36.23;;;18.93;;
2299;SDS011;1158;48.750;9.078;2023-03-01T03:21:33;37.80;;;20.10;;
2299;SDS011;1158;48.750;9.078;2023-03-01T03:24:00;42.37;;;20.10;;
2299;SDS011;1158;48.750;9.078;2023-03-01T03:26:27;40.73;;;20.27;;
2299;SDS011;1158;48.750;9.078;2023-03-01T03:28:53;43.63;;;20.70;;
2299;SDS011;1158;48.750;9.078;2023-03-01T03:31:20;42.00;;;20.60;;
2299;SDS011;1158;48.750;9.078;2023-03-01T03:33:48;45.07;;;22.23;;
2299;SDS011;1158;48.750;9.078;2023-03-01T03:36:15;41.43;;;20.60;;
2299;SDS011;1158;48.750;9.078;2023-03-01T03:38:42;35.23;;;19.00;;
2299;SDS011;1158;48.750;9.078;2023-03-01T03:41:09;46.23;;;21.13;;
2299;SDS011;1158;48.750;9.078;2023-03-01T03:43:37;50.43;;;21.10;;
2299;SDS011;1158;48.750;9.078;2023-03-01T03:46:04;35.43;;;19.13;;
2299;SDS011;1158;48.750;9.078;2023-03-01T03:48:32;38.37;;;19.53;;
2299;SDS011;1158;48.750;9.078;2023-03-01T03:51:01;39.97;;;19.90;;
2299;SDS011;1158;48.750;9.078;2023-03-01T03:53:30;39.13;;;20.97;;
2299;SDS011;1158;48.750;9.078;2023-03-01T03:55:57;39.03;;;19.93;;
2299;SDS011;1158;48.750;9.078;2023-03-01T03:58:24;38.37;;;20.50;;
2299;SDS011;1158;48.750;9.078;2023-03-01T04:00:53;32.37;;;19.80;;
2299;SDS011;1158;48.750;9.078;2023-03-01T04:03:22;36.63;;;20.27;;
2299;SDS011;1158;48.750;9.078;2023-03-01T04:05:50;38.77;;;18.33;;
2299;SDS011;1158;48.750;9.078;2023-03-01T04:08:18;36.27;;;20.30;;
2299;SDS011;1158;48.750;9.078;2023-03-01T04:10:47;35.80;;;19.03;;
2299;SDS011;1158;48.750;9.078;2023-03-01T04:13:18;42.83;;;20.93;;
2299;SDS011;1158;48.750;9.078;2023-03-01T04:15:47;41.43;;;20.73;;
2299;SDS011;1158;48.750;9.078;2023-03-01T04:18:15;39.17;;;19.40;;
2299;SDS011;1158;48.750;9.078;2023-03-01T04:20:43;38.67;;;19.53;;
2299;SDS011;1158;48.750;9.078;2023-03-01T04:23:11;42.97;;;20.03;;
2299;SDS011;1158;48.750;9.078;2023-03-01T04:25:44;38.03;;;20.80;;
2299;SDS011;1158;48.750;9.078;2023-03-01T04:28:14;36.97;;;20.63;;
2299;SDS011;1158;48.750;9.078;2023-03-01T04:30:42;38.00;;;20.23;;
2299;SDS011;1158;48.750;9.078;2023-03-01T04:33:09;30.67;;;19.60;;
2299;SDS011;1158;48.750;9.078;2023-03-01T04:35:36;35.10;;;19.53;;
2299;SDS011;1158;48.750;9.078;2023-03-01T04:38:04;28.00;;;17.77;;
2299;SDS011;1158;48.750;9.078;2023-03-01T04:40:31;32.00;;;17.97;;
2299;SDS011;1158;48.750;9.078;2023-03-01T04:42:59;34.93;;;18.60;;
2299;SDS011;1158;48.750;9.078;2023-03-01T04:45:26;32.83;;;17.87;;
2299;SDS011;1158;48.750;9.078;2023-03-01T04:47:53;33.73;;;17.17;;
2299;SDS011;1158;48.750;9.078;2023-03-01T04:50:20;34.43;;;18.17;;
2299;SDS011;1158;48.750;9.078;2023-03-01T04:52:48;34.00;;;19.07;;
2299;SDS011;1158;48.750;9.078;2023-03-01T04:55:15;40.77;;;21.30;;
2299;SDS011;1158;48.750;9.078;2023-03-01T04:57:42;33.27;;;19.53;;
2299;SDS011;1158;48.750;9.078;2023-03-01T05:00:11;36.37;;;20.20;;
2299;SDS011;1158;48.750;9.078;2023-03-01T05:02:49;43.40;;;19.50;;
2299;SDS011;1158;48.750;9.078;2023-03-01T05:05:19;40.30;;;21.13;;
2299;SDS011;1158;48.750;9.078;2023-03-01T05:07:50;31.73;;;17.97;;
2299;SDS011;1158;48.750;9.078;2023-03-01T05:10:17;31.30;;;17.23;;
2299;SDS011;1158;48.750;9.078;2023-03-01T05:12:44;33.23;;;17.70;;
2299;SDS011;1158;48.750;9.078;2023-03-01T05:15:13;32.73;;;17.50;;
2299;SDS011;1158;48.750;9.078;2023-03-01T05:17:39;34.63;;;19.17;;
2299;SDS011;1158;48.750;9.078;2023-03-01T05:20:07;36.20;;;17.93;;
2299;SDS011;1158;48.750;9.078;2023-03-01T05:22:35;38.23;;;20.70;;
2299;SDS011;1158;48.750;9.078;2023-03-01T05:25:03;35.10;;;18.40;;
2299;SDS011;1158;48.750;9.078;2023-03-01T05:27:31;33.73;;;19.40;;
2299;SDS011;1158;48.750;9.078;2023-03-01T05:29:58;34.27;;;20.67;;
2299;SDS011;1158;48.750;9.078;2023-03-01T05:32:39;34.33;;;19.27;;
2299;SDS011;1158;48.750;9.078;2023-03-01T05:35:08;36.50;;;20.50;;
2299;SDS011;1158;48.750;9.078;2023-03-01T05:37:38;36.10;;;19.00;;
2299;SDS011;1158;48.750;9.078;2023-03-01T05:40:05;40.00;;;22.23;;
2299;SDS011;1158;48.750;9.078;2023-03-01T05:42:41;38.03;;;20.93;;
2299;SDS011;1158;48.750;9.078;2023-03-01T05:45:11;35.20;;;20.37;;
2299;SDS011;1158;48.750;9.078;2023-03-01T05:47:39;37.30;;;21.00;;
2299;SDS011;1158;48.750;9.078;2023-03-01T05:50:10;37.67;;;20.53;;
2299;SDS011;1158;48.750;9.078;2023-03-01T05:52:38;35.93;;;19.60;;
2299;SDS011;1158;48.750;9.078;2023-03-01T05:55:05;36.63;;;20.40;;
2299;SDS011;1158;48.750;9.078;2023-03-01T05:57:33;35.60;;;19.90;;
2299;SDS011;1158;48.750;9.078;2023-03-01T05:59:59;35.20;;;19.40;;
2299;SDS011;1158;48.750;9.078;2023-03-01T06:02:26;39.07;;;20.37;;
2299;SDS011;1158;48.750;9.078;2023-03-01T06:04:55;38.53;;;19.87;;
2299;SDS011;1158;48.750;9.078;2023-03-01T06:07:22;35.97;;;21.40;;
2299;SDS011;1158;48.750;9.078;2023-03-01T06:09:49;37.90;;;19.13;;
2299;SDS011;1158;48.750;9.078;2023-03-01T06:12:15;35.60;;;18.53;;
2299;SDS011;1158;48.750;9.078;2023-03-01T06:14:42;34.60;;;19.97;;
2299;SDS011;1158;48.750;9.078;2023-03-01T06:17:09;33.90;;;18.70;;
2299;SDS011;1158;48.750;9.078;2023-03-01T06:19:35;33.97;;;19.23;;
2299;SDS011;1158;48.750;9.078;2023-03-01T06:22:03;36.23;;;19.70;;
2299;SDS011;1158;48.750;9.078;2023-03-01T06:24:30;35.50;;;18.23;;
2299;SDS011;1158;48.750;9.078;2023-03-01T06:26:58;32.30;;;17.87;;
2299;SDS011;1158;48.750;9.078;2023-03-01T06:29:24;43.87;;;22.20;;
2299;SDS011;1158;48.750;9.078;2023-03-01T06:31:51;33.70;;;20.33;;
2299;SDS011;1158;48.750;9.078;2023-03-01T06:34:18;34.10;;;19.90;;
2299;SDS011;1158;48.750;9.078;2023-03-01T06:36:46;31.70;;;19.63;;
2299;SDS011;1158;48.750;9.078;2023-03-01T06:39:14;33.67;;;18.60;;
2299;SDS011;1158;48.750;9.078;2023-03-01T06:41:42;36.10;;;21.63;;
2299;SDS011;1158;48.750;9.078;2023-03-01T06:44:09;32.60;;;20.70;;
2299;SDS011;1158;48.750;9.078;2023-03-01T06:46:36;34.77;;;19.27;;
2299;SDS011;1158;48.750;9.078;2023-03-01T06:49:02;42.33;;;21.07;;
2299;SDS011;1158;48.750;9.078;2023-03-01T06:51:29;39.43;;;19.27;;
2299;SDS011;1158;48.750;9.078;2023-03-01T06:53:56;40.33;;;21.90;;
2299;SDS011;1158;48.750;9.078;2023-03-01T06:56:24;42.10;;;21.83;;
2299;SDS011;1158;48.750;9.078;2023-03-01T06:58:50;39.43;;;21.27;;
2299;SDS011;1158;48.750;9.078;2023-03-01T07:01:17;37.17;;;20.67;;
2299;SDS011;1158;48.750;9.078;2023-03-01T07:03:44;38.30;;;20.20;;
2299;SDS011;1158;48.750;9.078;2023-03-01T07:06:11;36.20;;;19.40;;
2299;SDS011;1158;48.750;9.078;2023-03-01T07:08:37;36.23;;;20.73;;
2299;SDS011;1158;48.750;9.078;2023-03-01T07:11:04;32.67;;;19.50;;
2299;SDS011;1158;48.750;9.078;2023-03-01T07:13:32;32.90;;;20.10;;
2299;SDS011;1158;48.750;9.078;2023-03-01T07:15:59;34.83;;;19.40;;
2299;SDS011;1158;48.750;9.078;2023-03-01T07:18:26;33.67;;;19.37;;
2299;SDS011;1158;48.750;9.078;2023-03-01T07:20:52;34.43;;;20.50;;
2299;SDS011;1158;48.750;9.078;2023-03-01T07:23:19;34.63;;;21.40;;
2299;SDS011;1158;48.750;9.078;2023-03-01T07:25:50;42.20;;;21.30;;
2299;SDS011;1158;48.750;9.078;2023-03-01T07:28:18;31.67;;;18.63;;
2299;SDS011;1158;48.750;9.078;2023-03-01T07:30:46;32.60;;;17.23;;
2299;SDS011;1158;48.750;9.078;2023-03-01T07:33:13;26.53;;;17.93;;
2299;SDS011;1158;48.750;9.078;2023-03-01T07:35:39;28.90;;;17.40;;
2299;SDS011;1158;48.750;9.078;2023-03-01T07:38:06;27.40;;;19.50;;
2299;SDS011;1158;48.750;9.078;2023-03-01T07:40:33;28.73;;;20.07;;
2299;SDS011;1158;48.750;9.078;2023-03-01T07:42:59;35.57;;;21.17;;
2299;SDS011;1158;48.750;9.078;2023-03-01T07:45:27;29.27;;;18.43;;
2299;SDS011;1158;48.750;9.078;2023-03-01T07:47:56;26.70;;;20.07;;
2299;SDS011;1158;48.750;9.078;2023-03-01T07:50:22;28.00;;;18.40;;
2299;SDS011;1158;48.750;9.078;2023-03-01T07:52:49;30.50;;;19.60;;
2299;SDS011;1158;48.750;9.078;2023-03-01T07:55:16;28.07;;;18.80;;
2299;SDS011;1158;48.750;9.078;2023-03-01T07:57:44;28.73;;;19.00;;
2299;SDS011;1158;48.750;9.078;2023-03-01T08:00:11;34.60;;;19.27;;
2299;SDS011;1158;48.750;9.078;2023-03-01T08:02:38;29.03;;;20.70;;
2299;SDS011;1158;48.750;9.078;2023-03-01T08:05:08;26.70;;;18.20;;
2299;SDS011;1158;48.750;9.078;2023-03-01T08:07:35;27.80;;;19.10;;
2299;SDS011;1158;48.750;9.078;2023-03-01T08:10:02;27.67;;;20.60;;
2299;SDS011;1158;48.750;9.078;2023-03-01T08:12:29;26.90;;;19.57;;
2299;SDS011;1158;48.750;9.078;2023-03-01T08:14:55;35.30;;;20.60;;
2299;SDS011;1158;48.750;9.078;2023-03-01T08:17:22;30.03;;;19.90;;
2299;SDS011;1158;48.750;9.078;2023-03-01T08:19:49;27.77;;;20.83;;
2299;SDS011;1158;48.750;9.078;2023-03-01T08:22:17;28.07;;;19.63;;
2299;SDS011;1158;48.750;9.078;2023-03-01T08:24:44;30.97;;;20.63;;
2299;SDS011;1158;48.750;9.078;2023-03-01T08:27:11;34.07;;;22.07;;
2299;SDS011;1158;48.750;9.078;2023-03-01T08:29:38;27.33;;;20.53;;
2299;SDS011;1158;48.750;9.078;2023-03-01T08:32:05;32.00;;;20.97;;
2299;SDS011;1158;48.750;9.078;2023-03-01T08:34:31;24.93;;;19.33;;
2299;SDS011;1158;48.750;9.078;2023-03-01T08:37:00;30.73;;;20.10;;
2299;SDS011;1158;48.750;9.078;2023-03-01T08:39:29;31.97;;;20.43;;
2299;SDS011;1158;48.750;9.078;2023-03-01T08:41:56;26.43;;;21.20;;
2299;SDS011;1158;48.750;9.078;2023-03-01T08:44:23;27.70;;;19.93;;
2299;SDS011;1158;48.750;9.078;2023-03-01T08:46:50;26.90;;;19.80;;
2299;SDS011;1158;48.750;9.078;2023-03-01T08:49:18;30.53;;;21.57;;
2299;SDS011;1158;48.750;9.078;2023-03-01T08:51:46;28.83;;;20.73;;
2299;SDS011;1158;48.750;9.078;2023-03-01T08:54:13;26.77;;;19.83;;
2299;SDS011;1158;48.750;9.078;2023-03-01T08:56:44;26.97;;;19.73;;
2299;SDS011;1158;48.750;9.078;2023-03-01T08:59:12;30.07;;;20.13;;
2299;SDS011;1158;48.750;9.078;2023-03-01T09:01:39;26.13;;;20.83;;
2299;SDS011;1158;48.750;9.078;2023-03-01T09:04:08;28.30;;;20.47;;
2299;SDS011;1158;48.750;9.078;2023-03-01T09:06:35;29.33;;;21.30;;
2299;SDS011;1158;48.750;9.078;2023-03-01T09:09:02;27.40;;;21.13;;
2299;SDS011;1158;48.750;9.078;2023-03-01T09:11:30;29.50;;;21.47;;
2299;SDS011;1158;48.750;9.078;2023-03-01T09:13:59;29.87;;;22.10;;
2299;SDS011;1158;48.750;9.078;2023-03-01T09:16:26;32.30;;;21.23;;
2299;SDS011;1158;48.750;9.078;2023-03-01T09:18:54;32.10;;;21.07;;
2299;SDS011;1158;48.750;9.078;2023-03-01T09:21:21;27.23;;;19.90;;
2299;SDS011;1158;48.750;9.078;2023-03-01T09:23:49;33.57;;;21.37;;
2299;SDS011;1158;48.750;9.078;2023-03-01T09:26:17;31.67;;;21.80;;
2299;SDS011;1158;48.750;9.078;2023-03-01T09:28:46;26.30;;;20.83;;
2299;SDS011;1158;48.750;9.078;2023-03-01T09:31:15;31.80;;;20.80;;
2299;SDS011;1158;48.750;9.078;2023-03-01T09:33:44;31.33;;;20.47;;
2299;SDS011;1158;48.750;9.078;2023-03-01T09:36:12;30.20;;;21.17;;
2299;SDS011;1158;48.750;9.078;2023-03-01T09:38:39;30.90;;;20.20;;
2299;SDS011;1158;48.750;9.078;2023-03-01T09:41:09;33.20;;;22.43;;
2299;SDS011;1158;48.750;9.078;2023-03-01T09:43:49;28.57;;;19.87;;
2299;SDS011;1158;48.750;9.078;2023-03-01T09:46:20;27.70;;;21.13;;
2299;SDS011;1158;48.750;9.078;2023-03-01T09:48:50;29.87;;;21.47;;
2299;SDS011;1158;48.750;9.078;2023-03-01T09:51:22;28.23;;;20.60;;
2299;SDS011;1158;48.750;9.078;2023-03-01T09:53:53;28.90;;;20.40;;
2299;SDS011;1158;48.750;9.078;2023-03-01T09:56:22;27.07;;;20.70;;
2299;SDS011;1158;48.750;9.078;2023-03-01T09:58:57;30.50;;;20.93;;
2299;SDS011;1158;48.750;9.078;2023-03-01T10:01:35;27.77;;;21.07;;
2299;SDS011;1158;48.750;9.078;2023-03-01T10:04:22;27.00;;;21.23;;
2299;SDS011;1158;48.750;9.078;2023-03-01T10:06:56;29.53;;;20.43;;
2299;SDS011;1158;48.750;9.078;2023-03-01T10:09:32;31.73;;;21.20;;
2299;SDS011;1158;48.750;9.078;2023-03-01T10:12:00;28.30;;;20.23;;
2299;SDS011;1158;48.750;9.078;2023-03-01T10:14:32;29.80;;;21.33;;
2299;SDS011;1158;48.750;9.078;2023-03-01T10:17:04;27.43;;;19.80;;
2299;SDS011;1158;48.750;9.078;2023-03-01T10:19:38;30.93;;;20.70;;
2299;SDS011;1158;48.750;9.078;2023-03-01T10:22:10;28.83;;;21.77;;
2299;SDS011;1158;48.750;9.078;2023-03-01T10:24:40;31.27;;;20.53;;
2299;SDS011;1158;48.750;9.078;2023-03-01T10:27:07;29.33;;;19.60;;
2299;SDS011;1158;48.750;9.078;2023-03-01T10:29:43;25.80;;;20.83;;
2299;SDS011;1158;48.750;9.078;2023-03-01T10:32:16;30.03;;;21.77;;
2299;SDS011;1158;48.750;9.078;2023-03-01T10:34:44;26.50;;;20.07;;
2299;SDS011;1158;48.750;9.078;2023-03-01T10:37:11;31.90;;;19.70;;
2299;SDS011;1158;48.750;9.078;2023-03-01T10:39:56;26.60;;;20.43;;
2299;SDS011;1158;48.750;9.078;2023-03-01T10:42:28;29.27;;;19.97;;
2299;SDS011;1158;48.750;9.078;2023-03-01T10:44:55;27.93;;;19.67;;
2299;SDS011;1158;48.750;9.078;2023-03-01T10:47:25;28.20;;;19.40;;
2299;SDS011;1158;48.750;9.078;2023-03-01T10:49:57;27.70;;;20.30;;
2299;SDS011;1158;48.750;9.078;2023-03-01T10:52:27;28.57;;;20.03;;
2299;SDS011;1158;48.750;9.078;2023-03-01T10:54:57;35.20;;;21.50;;
2299;SDS011;1158;48.750;9.078;2023-03-01T10:57:32;30.53;;;21.17;;
2299;SDS011;1158;48.750;9.078;2023-03-01T11:00:19;27.43;;;20.87;;
2299;SDS011;1158;48.750;9.078;2023-03-01T11:03:01;29.77;;;21.13;;
2299;SDS011;1158;48.750;9.078;2023-03-01T11:05:35;29.03;;;19.87;;
2299;SDS011;1158;48.750;9.078;2023-03-01T11:08:02;26.80;;;19.73;;
2299;SDS011;1158;48.750;9.078;2023-03-01T11:10:30;30.73;;;20.70;;
2299;SDS011;1158;48.750;9.078;2023-03-01T11:13:07;25.70;;;19.30;;
2299;SDS011;1158;48.750;9.078;2023-03-01T11:15:41;28.47;;;18.37;;
2299;SDS011;1158;48.750;9.078;2023-03-01T11:18:19;28.87;;;19.57;;
2299;SDS011;1158;48.750;9.078;2023-03-01T11:20:48;26.40;;;18.43;;
2299;SDS011;1158;48.750;9.078;2023-03-01T11:23:18;26.17;;;19.00;;
2299;SDS011;1158;48.750;9.078;2023-03-01T11:25:47;29.83;;;20.30;;
2299;SDS011;1158;48.750;9.078;2023-03-01T11:28:17;26.30;;;19.30;;
2299;SDS011;1158;48.750;9.078;2023-03-01T11:30:48;30.50;;;20.17;;
2299;SDS011;1158;48.750;9.078;2023-03-01T11:33:24;27.60;;;19.00;;
2299;SDS011;1158;48.750;9.078;2023-03-01T11:36:01;26.83;;;18.20;;
2299;SDS011;1158;48.750;9.078;2023-03-01T11:38:34;33.40;;;20.30;;
2299;SDS011;1158;48.750;9.078;2023-03-01T11:41:04;27.20;;;20.30;;
2299;SDS011;1158;48.750;9.078;2023-03-01T11:43:35;25.90;;;19.60;;
2299;SDS011;1158;48.750;9.078;2023-03-01T11:46:24;25.93;;;19.77;;
2299;SDS011;1158;48.750;9.078;2023-03-01T11:49:14;27.77;;;19.93;;
2299;SDS011;1158;48.750;9.078;2023-03-01T11:51:52;25.50;;;18.67;;
2299;SDS011;1158;48.750;9.078;2023-03-01T11:54:28;28.33;;;19.97;;
2299;SDS011;1158;48.750;9.078;2023-03-01T11:57:07;27.63;;;20.67;;
2299;SDS011;1158;48.750;9.078;2023-03-01T12:08:51;26.40;;;18.27;;
2299;SDS011;1158;48.750;9.078;2023-03-01T12:11:29;26.77;;;19.07;;
2299;SDS011;1158;48.750;9.078;2023-03-01T12:14:13;27.40;;;19.37;;
2299;SDS011;1158;48.750;9.078;2023-03-01T12:16:56;30.97;;;19.67;;
2299;SDS011;1158;48.750;9.078;2023-03-01T12:22:37;28.27;;;18.90;;
2299;SDS011;1158;48.750;9.078;2023-03-01T12:25:21;25.43;;;19.00;;
2299;SDS011;1158;48.750;9.078;2023-03-01T12:28:06;28.73;;;20.63;;
2299;SDS011;1158;48.750;9.078;2023-03-01T12:31:02;25.70;;;18.37;;
2299;SDS011;1158;48.750;9.078;2023-03-01T12:33:41;28.20;;;18.67;;
2299;SDS011;1158;48.750;9.078;2023-03-01T12:36:25;27.37;;;18.23;;
2299;SDS011;1158;48.750;9.078;2023-03-01T12:39:10;27.50;;;18.93;;
2299;SDS011;1158;48.750;9.078;2023-03-01T12:41:52;26.23;;;19.40;;
2299;SDS011;1158;48.750;9.078;2023-03-01T12:44:30;26.60;;;18.53;;
2299;SDS011;1158;48.750;9.078;2023-03-01T12:47:17;24.77;;;18.00;;
2299;SDS011;1158;48.750;9.078;2023-03-01T12:49:49;25.47;;;17.20;;
2299;SDS011;1158;48.750;9.078;2023-03-01T12:52:21;27.90;;;19.13;;
2299;SDS011;1158;48.750;9.078;2023-03-01T12:54:55;23.80;;;18.10;;
2299;SDS011;1158;48.750;9.078;2023-03-01T12:57:28;22.70;;;17.10;;
2299;SDS011;1158;48.750;9.078;2023-03-01T13:00:03;23.10;;;17.77;;
2299;SDS011;1158;48.750;9.078;2023-03-01T13:02:43;24.47;;;17.50;;
2299;SDS011;1158;48.750;9.078;2023-03-01T13:05:24;22.30;;;17.00;;
2299;SDS011;1158;48.750;9.078;2023-03-01T13:08:01;19.40;;;16.33;;
2299;SDS011;1158;48.750;9.078;2023-03-01T13:10:39;22.77;;;16.77;;
2299;SDS011;1158;48.750;9.078;2023-03-01T13:13:20;21.70;;;16.20;;
2299;SDS011;1158;48.750;9.078;2023-03-01T13:15:47;24.10;;;16.77;;
2299;SDS011;1158;48.750;9.078;2023-03-01T13:18:29;23.00;;;16.37;;
2299;SDS011;1158;48.750;9.078;2023-03-01T13:20:57;22.33;;;15.70;;
2299;SDS011;1158;48.750;9.078;2023-03-01T13:23:31;25.90;;;17.20;;
2299;SDS011;1158;48.750;9.078;2023-03-01T13:26:02;23.93;;;16.27;;
2299;SDS011;1158;48.750;9.078;2023-03-01T13:28:39;22.90;;;17.20;;
2299;SDS011;1158;48.750;9.078;2023-03-01T13:37:27;21.43;;;15.60;;
2299;SDS011;1158;48.750;9.078;2023-03-01T13:39:59;24.93;;;18.60;;
2299;SDS011;1158;48.750;9.078;2023-03-01T13:42:40;26.63;;;19.03;;
2299;SDS011;1158;48.750;9.078;2023-03-01T13:45:19;23.33;;;18.13;;
2299;SDS011;1158;48.750;9.078;2023-03-01T13:47:52;24.40;;;18.43;;
2299;SDS011;1158;48.750;9.078;2023-03-01T13:50:24;26.67;;;18.97;;
2299;SDS011;1158;48.750;9.078;2023-03-01T13:52:53;24.50;;;18.00;;
2299;SDS011;1158;48.750;9.078;2023-03-01T13:55:25;25.50;;;18.30;;
2299;SDS011;1158;48.750;9.078;2023-03-01T13:57:59;25.57;;;18.20;;
2299;SDS011;1158;48.750;9.078;2023-03-01T14:00:31;23.30;;;19.27;;
2299;SDS011;1158;48.750;9.078;2023-03-01T14:03:03;20.63;;;16.53;;
2299;SDS011;1158;48.750;9.078;2023-03-01T14:05:34;26.70;;;18.43;;
2299;SDS011;1158;48.750;9.078;2023-03-01T14:08:01;27.33;;;19.00;;
2299;SDS011;1158;48.750;9.078;2023-03-01T14:10:31;26.10;;;18.60;;
2299;SDS011;1158;48.750;9.078;2023-03-01T14:13:09;27.70;;;19.50;;
2299;SDS011;1158;48.750;9.078;2023-03-01T14:15:48;26.50;;;19.20;;
2299;SDS011;1158;48.750;9.078;2023-03-01T14:18:25;23.20;;;18.43;;
2299;SDS011;1158;48.750;9.078;2023-03-01T14:21:06;23.93;;;17.43;;
2299;SDS011;1158;48.750;9.078;2023-03-01T14:23:34;33.67;;;19.07;;
2299;SDS011;1158;48.750;9.078;2023-03-01T14:26:04;23.43;;;17.90;;
2299;SDS011;1158;48.750;9.078;2023-03-01T14:28:31;25.73;;;17.23;;
2299;SDS011;1158;48.750;9.078;2023-03-01T14:31:04;26.27;;;19.77;;
2299;SDS011;1158;48.750;9.078;2023-03-01T14:34:01;27.40;;;18.77;;
2299;SDS011;1158;48.750;9.078;2023-03-01T14:36:29;23.90;;;18.67;;
2299;SDS011;1158;48.750;9.078;2023-03-01T14:38:57;24.67;;;19.20;;
2299;SDS011;1158;48.750;9.078;2023-03-01T14:41:30;24.53;;;20.17;;
2299;SDS011;1158;48.750;9.078;2023-03-01T14:44:00;23.20;;;19.43;;
2299;SDS011;1158;48.750;9.078;2023-03-01T14:46:30;25.00;;;19.27;;
2299;SDS011;1158;48.750;9.078;2023-03-01T14:49:01;25.93;;;19.90;;
2299;SDS011;1158;48.750;9.078;2023-03-01T14:51:29;25.10;;;17.83;;
2299;SDS011;1158;48.750;9.078;2023-03-01T14:53:56;26.47;;;19.20;;
2299;SDS011;1158;48.750;9.078;2023-03-01T14:56:23;29.60;;;20.50;;
2299;SDS011;1158;48.750;9.078;2023-03-01T14:58:53;22.40;;;19.07;;
2299;SDS011;1158;48.750;9.078;2023-03-01T15:01:23;25.47;;;19.53;;
2299;SDS011;1158;48.750;9.078;2023-03-01T15:03:52;25.10;;;19.50;;
2299;SDS011;1158;48.750;9.078;2023-03-01T15:06:20;23.30;;;19.33;;
2299;SDS011;1158;48.750;9.078;2023-03-01T15:08:49;26.63;;;19.27;;
2299;SDS011;1158;48.750;9.078;2023-03-01T15:11:19;27.60;;;19.73;;
2299;SDS011;1158;48.750;9.078;2023-03-01T15:13:49;28.43;;;19.00;;
2299;SDS011;1158;48.750;9.078;2023-03-01T15:16:17;27.50;;;20.53;;
2299;SDS011;1158;48.750;9.078;2023-03-01T15:18:46;31.57;;;21.90;;
2299;SDS011;1158;48.750;9.078;2023-03-01T15:21:17;32.00;;;20.40;;
2299;SDS011;1158;48.750;9.078;2023-03-01T15:23:49;26.20;;;21.10;;